createdAt,value
2024-02-24T00:02:07.861Z,68.62
2024-02-24T00:04:38.610Z,70.62
2024-02-24T00:07:08.998Z,75.09
2024-02-24T00:09:39.429Z,75.18
2024-02-24T00:12:10.440Z,76.75
2024-02-24T00:14:41.070Z,78.54
2024-02-24T00:17:11.600Z,78.50
2024-02-24T00:19:42.553Z,79.68
2024-02-24T00:22:13.705Z,80.53
2024-02-24T00:24:43.907Z,80.59
2024-02-24T00:27:14.381Z,81.26
2024-02-24T00:29:44.733Z,82.89
2024-02-24T00:32:15.251Z,82.15
2024-02-24T00:34:46.673Z,83.86
2024-02-24T00:37:17.232Z,84.33
2024-02-24T00:39:47.773Z,82.98
2024-02-24T00:42:18.144Z,85.53
2024-02-24T00:44:48.514Z,85.00
2024-02-24T00:47:19.406Z,85.06
2024-02-24T00:49:49.915Z,85.84
2024-02-24T00:52:20.334Z,84.25
2024-02-24T00:54:50.709Z,85.85
2024-02-24T00:57:21.388Z,85.65
2024-02-24T00:59:51.663Z,85.24
2024-02-24T01:02:21.804Z,85.59
2024-02-24T01:04:54.623Z,83.54
2024-02-24T01:07:25.087Z,83.83
2024-02-24T01:09:55.654Z,85.00
2024-02-24T01:12:25.929Z,82.36
2024-02-24T01:14:58.634Z,82.12
2024-02-24T01:17:32.273Z,82.11
2024-02-24T01:20:02.718Z,82.10
2024-02-24T01:22:33.405Z,82.04
2024-02-24T01:25:03.963Z,82.90
2024-02-24T01:27:34.399Z,83.72
2024-02-24T01:30:04.911Z,83.83
2024-02-24T01:32:35.392Z,84.23
2024-02-24T01:35:06.263Z,84.55
2024-02-24T01:37:37.364Z,83.30
2024-02-24T01:40:08.955Z,84.74
2024-02-24T01:42:39.403Z,82.41
2024-02-24T01:45:09.940Z,81.64
2024-02-24T01:47:41.271Z,81.80
2024-02-24T01:50:12.716Z,81.77
2024-02-24T01:52:45.494Z,80.17
2024-02-24T01:55:16.351Z,80.76
2024-02-24T01:57:47.335Z,80.92
2024-02-24T02:00:18.098Z,80.01
2024-02-24T02:02:49.752Z,80.00
2024-02-24T02:05:20.444Z,79.23
2024-02-24T02:07:50.733Z,78.90
2024-02-24T02:10:21.779Z,78.67
2024-02-24T02:12:52.385Z,78.42
2024-02-24T02:15:23.065Z,78.26
2024-02-24T02:17:53.833Z,78.30
2024-02-24T02:20:24.481Z,78.46
2024-02-24T02:22:55.401Z,78.47
2024-02-24T02:25:26.014Z,78.04
2024-02-24T02:27:56.396Z,78.11
2024-02-24T02:30:27.038Z,77.97
2024-02-24T02:32:57.649Z,77.81
2024-02-24T02:35:29.080Z,78.03
2024-02-24T02:37:59.612Z,77.48
2024-02-24T02:40:29.995Z,77.81
2024-02-24T02:43:00.755Z,77.55
2024-02-24T02:45:31.341Z,77.78
2024-02-24T02:48:01.737Z,77.23
2024-02-24T02:50:32.358Z,77.14
2024-02-24T02:53:02.746Z,77.04
2024-02-24T02:55:33.048Z,77.30
2024-02-24T02:58:03.724Z,77.10
2024-02-24T03:00:34.064Z,76.94
2024-02-24T03:03:04.548Z,76.52
2024-02-24T03:05:35.119Z,76.86
2024-02-24T03:08:06.140Z,76.59
2024-02-24T03:10:36.849Z,76.61
2024-02-24T03:13:07.262Z,76.42
2024-02-24T03:15:38.303Z,76.83
2024-02-24T03:18:08.852Z,76.42
2024-02-24T03:20:39.506Z,77.25
2024-02-24T03:23:10.473Z,77.76
2024-02-24T03:25:41.702Z,77.71
2024-02-24T03:28:12.270Z,77.43
2024-02-24T03:30:42.578Z,77.92
2024-02-24T03:33:14.926Z,77.36
2024-02-24T03:35:45.496Z,77.13
2024-02-24T03:38:16.330Z,77.62
2024-02-24T03:40:46.714Z,77.49
2024-02-24T03:43:17.128Z,77.52
2024-02-24T03:45:47.737Z,77.84
2024-02-24T03:48:18.289Z,77.51
2024-02-24T03:50:49.327Z,77.13
2024-02-24T03:53:19.864Z,77.50
2024-02-24T03:55:52.129Z,77.14
2024-02-24T03:58:23.800Z,77.41
2024-02-24T04:00:54.389Z,77.38
2024-02-24T04:03:25.306Z,77.71
2024-02-24T04:05:56.638Z,76.86
2024-02-24T04:08:27.727Z,76.82
2024-02-24T04:10:58.217Z,77.03
2024-02-24T04:13:28.870Z,76.73
2024-02-24T04:15:59.416Z,76.88
2024-02-24T04:18:29.855Z,76.66
2024-02-24T04:21:00.574Z,76.35
2024-02-24T04:23:31.387Z,76.96
2024-02-24T04:26:01.936Z,76.80
2024-02-24T04:28:32.340Z,77.11
2024-02-24T04:31:02.567Z,77.06
2024-02-24T04:33:32.982Z,76.73
2024-02-24T04:36:07.056Z,76.87
2024-02-24T04:38:37.706Z,77.07
2024-02-24T04:41:08.406Z,77.73
2024-02-24T04:43:38.968Z,77.65
2024-02-24T04:46:09.532Z,77.73
2024-02-24T04:48:40.062Z,77.23
2024-02-24T04:51:11.373Z,77.03
2024-02-24T04:53:41.791Z,76.50
2024-02-24T04:56:17.583Z,76.10
2024-02-24T04:58:48.106Z,76.17
2024-02-24T05:01:21.693Z,76.74
2024-02-24T05:03:52.299Z,76.29
2024-02-24T05:06:47.543Z,76.52
2024-02-24T05:09:18.195Z,76.38
2024-02-24T05:11:49.284Z,76.90
2024-02-24T05:14:20.714Z,76.62
2024-02-24T05:16:51.320Z,76.47
2024-02-24T05:19:21.707Z,76.32
2024-02-24T05:21:52.398Z,76.54
2024-02-24T05:24:23.381Z,74.55
2024-02-24T05:26:54.137Z,72.72
2024-02-24T05:29:24.697Z,71.29
2024-02-24T05:31:54.891Z,69.03
2024-02-24T05:34:25.964Z,67.22
2024-02-24T05:36:56.942Z,67.83
2024-02-24T05:39:27.337Z,65.05
2024-02-24T05:41:58.709Z,65.16
2024-02-24T05:44:29.352Z,64.57
2024-02-24T05:47:00.534Z,63.46
2024-02-24T05:49:31.140Z,62.88
2024-02-24T05:52:01.605Z,63.15
2024-02-24T05:54:31.876Z,61.99
2024-02-24T05:57:06.775Z,61.57
2024-02-24T05:59:37.927Z,62.19
2024-02-24T06:02:08.558Z,61.15
2024-02-24T06:04:40.648Z,60.86
2024-02-24T06:07:11.336Z,61.06
2024-02-24T06:09:41.860Z,60.33
2024-02-24T06:12:12.226Z,59.68
2024-02-24T06:14:43.135Z,60.07
2024-02-24T06:17:13.844Z,59.46
2024-02-24T06:19:44.394Z,58.85
2024-02-24T06:22:14.794Z,59.37
2024-02-24T06:24:46.061Z,59.03
2024-02-24T06:27:16.560Z,58.82
2024-02-24T06:29:46.877Z,59.03
2024-02-24T06:32:17.461Z,57.76
2024-02-24T06:34:48.337Z,58.68
2024-02-24T06:37:18.756Z,57.93
2024-02-24T06:39:49.650Z,57.73
2024-02-24T06:42:19.958Z,58.65
2024-02-24T06:44:50.509Z,57.77
2024-02-24T06:47:28.627Z,57.04
2024-02-24T06:50:00.198Z,57.12
2024-02-24T06:52:30.673Z,57.58
2024-02-24T06:55:02.325Z,57.17
2024-02-24T06:57:32.814Z,56.86
2024-02-24T07:00:03.756Z,57.06
2024-02-24T07:02:34.283Z,56.36
2024-02-24T07:05:05.970Z,55.92
2024-02-24T07:07:37.423Z,56.62
2024-02-24T07:10:08.592Z,55.91
2024-02-24T07:12:42.974Z,56.18
2024-02-24T07:15:14.400Z,55.50
2024-02-24T07:17:45.767Z,57.41
2024-02-24T07:20:16.546Z,59.77
2024-02-24T07:22:50.750Z,61.51
2024-02-24T07:25:21.802Z,62.42
2024-02-24T07:27:52.194Z,62.46
2024-02-24T07:30:22.444Z,61.57
2024-02-24T07:32:53.129Z,60.91
2024-02-24T07:35:23.803Z,59.60
2024-02-24T07:37:54.237Z,59.04
2024-02-24T07:40:24.712Z,58.59
2024-02-24T07:42:56.589Z,58.21
2024-02-24T07:45:29.977Z,57.44
2024-02-24T07:48:00.709Z,57.16
2024-02-24T07:50:31.351Z,56.50
2024-02-24T07:53:01.775Z,56.49
2024-02-24T07:55:33.348Z,56.60
2024-02-24T07:58:03.411Z,54.11
2024-02-24T08:00:33.547Z,55.52
2024-02-24T08:03:04.410Z,56.07
2024-02-24T08:05:34.966Z,54.98
2024-02-24T08:08:05.765Z,55.54
2024-02-24T08:10:36.106Z,54.90
2024-02-24T08:13:06.771Z,55.10
2024-02-24T08:15:37.095Z,55.34
2024-02-24T08:18:08.143Z,54.89
2024-02-24T08:20:38.826Z,54.75
2024-02-24T08:23:09.290Z,55.16
2024-02-24T08:25:40.678Z,54.65
2024-02-24T08:28:11.229Z,54.15
2024-02-24T08:30:41.546Z,54.53
2024-02-24T08:33:12.200Z,53.97
2024-02-24T08:35:43.002Z,54.19
2024-02-24T08:38:13.444Z,54.09
2024-02-24T08:40:43.922Z,53.90
2024-02-24T08:43:14.953Z,53.83
2024-02-24T08:45:45.808Z,53.52
2024-02-24T08:48:16.261Z,53.07
2024-02-24T08:50:46.959Z,53.84
2024-02-24T08:53:17.446Z,52.57
2024-02-24T08:55:48.326Z,52.91
2024-02-24T08:58:19.898Z,52.96
2024-02-24T09:00:50.824Z,52.48
2024-02-24T09:03:22.471Z,52.83
2024-02-24T09:05:55.104Z,53.20
2024-02-24T09:08:25.828Z,52.89
2024-02-24T09:10:56.488Z,53.83
2024-02-24T09:13:26.742Z,54.94
2024-02-24T09:15:57.341Z,54.59
2024-02-24T09:18:28.678Z,55.54
2024-02-24T09:20:59.300Z,57.83
2024-02-24T09:23:29.813Z,58.47
2024-02-24T09:26:00.819Z,58.89
2024-02-24T09:28:31.402Z,60.75
2024-02-24T09:31:01.826Z,60.87
2024-02-24T09:33:32.501Z,60.84
2024-02-24T09:36:03.269Z,60.85
2024-02-24T09:38:33.705Z,61.82
2024-02-24T09:41:05.587Z,62.05
2024-02-24T09:43:37.191Z,61.91
2024-02-24T09:46:08.121Z,62.55
2024-02-24T09:48:40.886Z,61.88
2024-02-24T09:51:12.899Z,61.75
2024-02-24T09:53:44.058Z,62.17
2024-02-24T09:56:23.086Z,62.20
2024-02-24T09:59:32.882Z,62.45
2024-02-24T10:02:03.746Z,62.70
2024-02-24T10:04:58.865Z,62.99
2024-02-24T10:07:37.242Z,63.13
2024-02-24T10:10:09.159Z,62.30
2024-02-24T10:12:40.002Z,62.36
2024-02-24T10:15:11.315Z,61.88
2024-02-24T10:17:42.874Z,62.72
2024-02-24T10:20:13.679Z,63.29
2024-02-24T10:22:44.933Z,62.77
2024-02-24T10:25:17.339Z,62.47
2024-02-24T10:27:49.786Z,61.84
2024-02-24T10:30:22.959Z,63.48
2024-02-24T10:32:57.390Z,63.61
2024-02-24T10:35:28.888Z,63.88
2024-02-24T10:38:16.413Z,63.85
2024-02-24T10:40:51.694Z,63.28
2024-02-24T10:43:24.517Z,63.58
2024-02-24T10:45:56.337Z,63.06
2024-02-24T10:48:27.486Z,63.21
2024-02-24T10:50:58.833Z,63.71
2024-02-24T10:53:33.551Z,64.00
2024-02-24T10:56:05.283Z,64.35
2024-02-24T10:58:37.812Z,64.02
2024-02-24T11:01:11.060Z,64.69
2024-02-24T11:03:42.232Z,64.30
2024-02-24T11:06:15.751Z,64.03
2024-02-24T11:08:47.682Z,63.52
2024-02-24T11:11:18.760Z,63.22
2024-02-24T11:16:26.297Z,62.87
2024-02-24T11:18:58.143Z,63.77
2024-02-24T11:22:02.173Z,63.75
2024-02-24T11:24:37.400Z,64.36
2024-02-24T11:27:08.853Z,64.30
2024-02-24T11:29:41.144Z,63.90
2024-02-24T11:32:14.800Z,64.62
2024-02-24T11:34:47.497Z,64.10
2024-02-24T11:37:20.698Z,65.46
2024-02-24T11:39:53.154Z,64.70
2024-02-24T11:42:25.993Z,64.83
2024-02-24T11:44:58.203Z,65.08
2024-02-24T11:47:31.078Z,64.69
2024-02-24T11:50:02.802Z,65.07
2024-02-24T11:52:35.800Z,64.59
2024-02-24T11:55:08.085Z,65.26
2024-02-24T11:57:39.178Z,64.16
2024-02-24T12:00:10.800Z,62.80
2024-02-24T12:02:41.774Z,61.56
2024-02-24T12:05:16.707Z,61.21
2024-02-24T12:07:48.040Z,62.11
2024-02-24T12:10:19.142Z,61.69
2024-02-24T12:12:51.185Z,60.73
2024-02-24T12:15:22.292Z,59.68
2024-02-24T12:17:53.364Z,57.92
2024-02-24T12:20:28.548Z,56.91
2024-02-24T12:23:09.304Z,56.78
2024-02-24T12:25:41.712Z,57.44
2024-02-24T12:28:13.999Z,56.58
2024-02-24T12:30:47.352Z,56.23
2024-02-24T12:33:19.893Z,55.56
2024-02-24T12:35:51.198Z,55.95
2024-02-24T12:38:22.695Z,55.15
2024-02-24T12:40:53.919Z,54.82
2024-02-24T12:43:25.185Z,55.44
2024-02-24T12:45:58.188Z,54.47
2024-02-24T12:48:29.323Z,54.70
2024-02-24T12:51:00.516Z,54.45
2024-02-24T12:53:31.593Z,54.03
2024-02-24T12:56:02.789Z,54.29
2024-02-24T12:58:33.845Z,54.36
2024-02-24T13:01:05.240Z,53.68
2024-02-24T13:03:36.331Z,53.92
2024-02-24T13:06:07.812Z,53.78
2024-02-24T13:08:39.094Z,53.12
2024-02-24T13:11:11.833Z,53.16
2024-02-24T13:13:42.757Z,53.69
2024-02-24T13:16:13.445Z,53.52
2024-02-24T13:18:45.317Z,53.68
2024-02-24T13:21:16.602Z,53.50
2024-02-24T13:23:47.615Z,53.09
2024-02-24T13:26:18.445Z,53.26
2024-02-24T13:28:49.568Z,53.22
2024-02-24T13:31:24.071Z,52.38
2024-02-24T13:33:59.218Z,52.64
2024-02-24T13:36:30.391Z,53.13
2024-02-24T13:39:02.279Z,53.56
2024-02-24T13:41:33.636Z,53.00
2024-02-24T13:44:05.058Z,52.98
2024-02-24T13:46:36.594Z,53.13
2024-02-24T13:49:14.562Z,52.99
2024-02-24T13:51:45.944Z,52.95
2024-02-24T13:54:17.096Z,52.92
2024-02-24T13:56:50.868Z,52.81
2024-02-24T13:59:22.252Z,52.45
2024-02-24T14:02:02.338Z,52.76
2024-02-24T14:04:33.690Z,52.06
2024-02-24T14:07:05.352Z,53.10
2024-02-24T14:09:38.266Z,52.43
2024-02-24T14:12:11.226Z,53.90
2024-02-24T14:14:42.587Z,53.96
2024-02-24T14:17:15.210Z,54.57
2024-02-24T14:19:47.142Z,56.54
2024-02-24T14:22:18.742Z,57.11
2024-02-24T14:24:49.963Z,56.68
2024-02-24T14:27:22.486Z,57.04
2024-02-24T14:29:53.878Z,56.58
2024-02-24T14:32:26.231Z,56.58
2024-02-24T14:34:58.109Z,57.06
2024-02-24T14:37:35.768Z,56.99
2024-02-24T14:40:10.544Z,56.75
2024-02-24T14:42:42.206Z,56.95
2024-02-24T14:45:13.824Z,56.86
2024-02-24T14:47:45.513Z,56.67
2024-02-24T14:50:18.493Z,56.20
2024-02-24T14:52:50.593Z,55.68
2024-02-24T14:55:23.577Z,56.31
2024-02-24T14:57:55.081Z,55.64
2024-02-24T15:00:32.434Z,55.82
2024-02-24T15:03:10.536Z,55.55
2024-02-24T15:05:44.598Z,55.34
2024-02-24T15:08:16.143Z,55.42
2024-02-24T15:10:48.293Z,54.77
2024-02-24T15:13:25.483Z,55.14
2024-02-24T15:15:59.621Z,55.37
2024-02-24T15:18:32.238Z,55.08
2024-02-24T15:21:04.183Z,54.85
2024-02-24T15:23:38.124Z,54.94
2024-02-24T15:26:11.003Z,54.72
2024-02-24T15:28:44.503Z,54.86
2024-02-24T15:31:20.487Z,54.46
2024-02-24T15:33:56.586Z,54.86
2024-02-24T15:36:30.865Z,54.70
2024-02-24T15:39:02.458Z,54.19
2024-02-24T15:41:35.446Z,53.94
2024-02-24T15:44:09.720Z,53.99
2024-02-24T15:46:48.577Z,54.12
2024-02-24T15:49:21.036Z,53.66
2024-02-24T15:51:55.496Z,53.71
2024-02-24T15:54:31.230Z,53.86
2024-02-24T15:57:03.396Z,53.42
2024-02-24T16:00:04.440Z,53.72
2024-02-24T16:02:38.296Z,53.91
2024-02-24T16:05:10.064Z,53.68
2024-02-24T16:07:42.809Z,53.51
2024-02-24T16:10:15.885Z,53.38
2024-02-24T16:12:47.549Z,53.40
2024-02-24T16:15:20.536Z,53.78
2024-02-24T16:17:52.304Z,53.36
2024-02-24T16:20:24.486Z,53.75
2024-02-24T16:23:03.855Z,53.54
2024-02-24T16:25:35.267Z,53.34
2024-02-24T16:28:09.907Z,53.11
2024-02-24T16:30:42.540Z,52.86
2024-02-24T16:33:14.316Z,53.06
2024-02-24T16:35:46.391Z,53.00
2024-02-24T16:38:17.853Z,52.64
2024-02-24T16:40:51.820Z,52.84
2024-02-24T16:43:24.847Z,52.73
2024-02-24T16:45:56.566Z,52.77
2024-02-24T16:48:28.006Z,53.16
2024-02-24T16:51:01.673Z,52.87
2024-02-24T16:53:33.362Z,53.17
2024-02-24T16:56:04.446Z,53.32
2024-02-24T16:58:39.897Z,52.99
2024-02-24T17:01:14.324Z,52.86
2024-02-24T17:03:50.963Z,53.41
2024-02-24T17:06:23.635Z,52.89
2024-02-24T17:08:54.743Z,53.41
2024-02-24T17:11:26.061Z,52.89
2024-02-24T17:14:01.174Z,53.32
2024-02-24T17:16:38.535Z,52.82
2024-02-24T17:19:09.925Z,52.89
2024-02-24T17:21:44.291Z,53.27
2024-02-24T17:24:17.846Z,52.76
2024-02-24T17:26:49.178Z,53.30
2024-02-24T17:29:20.546Z,53.30
2024-02-24T17:31:51.840Z,53.60
2024-02-24T17:34:23.100Z,53.32
2024-02-24T17:36:55.072Z,53.22
2024-02-24T17:39:28.356Z,53.56
2024-02-24T17:42:01.169Z,52.73
2024-02-24T17:44:34.620Z,53.46
2024-02-24T17:47:08.262Z,53.18
2024-02-24T17:49:41.742Z,53.11
2024-02-24T17:52:13.040Z,53.46
2024-02-24T17:54:44.216Z,53.44
2024-02-24T17:57:24.458Z,53.22
2024-02-24T17:59:57.350Z,53.20
2024-02-24T18:02:32.285Z,52.81
2024-02-24T18:05:06.950Z,53.34
2024-02-24T18:07:48.718Z,52.86
2024-02-24T18:10:22.417Z,52.76
2024-02-24T18:12:57.175Z,52.93
2024-02-24T18:15:34.056Z,53.09
2024-02-24T18:18:11.761Z,53.41
2024-02-24T18:20:45.328Z,52.85
2024-02-24T18:23:20.668Z,53.43
2024-02-24T18:26:01.426Z,53.23
2024-02-24T18:28:32.216Z,53.19
2024-02-24T18:31:04.227Z,53.25
2024-02-24T18:33:35.281Z,53.49
2024-02-24T18:36:09.336Z,52.89
2024-02-24T18:38:43.146Z,52.99
2024-02-24T18:41:14.055Z,53.04
2024-02-24T18:43:45.084Z,53.40
2024-02-24T18:46:19.979Z,53.32
2024-02-24T18:48:55.674Z,52.86
2024-02-24T18:51:26.689Z,53.34
2024-02-24T18:53:59.667Z,52.89
2024-02-24T18:56:31.423Z,53.41
2024-02-24T18:59:07.219Z,53.22
2024-02-24T19:01:40.443Z,52.80
2024-02-24T19:04:11.524Z,53.20
2024-02-24T19:06:43.550Z,52.78
2024-02-24T19:09:17.255Z,52.79
2024-02-24T19:11:48.555Z,52.68
2024-02-24T19:14:22.111Z,53.22
2024-02-24T19:16:53.783Z,52.74
2024-02-24T19:19:25.810Z,52.94
2024-02-24T19:21:56.594Z,52.85
2024-02-24T19:24:27.273Z,52.60
2024-02-24T19:26:58.710Z,52.83
2024-02-24T19:29:29.924Z,52.80
2024-02-24T19:32:01.588Z,52.69
2024-02-24T19:34:32.560Z,53.08
2024-02-24T19:37:05.552Z,52.98
2024-02-24T19:39:37.950Z,53.12
2024-02-24T19:42:09.112Z,52.67
2024-02-24T19:44:42.546Z,52.65
2024-02-24T19:47:14.448Z,52.48
2024-02-24T19:49:45.297Z,52.71
2024-02-24T19:52:16.520Z,53.21
2024-02-24T19:54:50.572Z,53.09
2024-02-24T19:57:22.740Z,52.94
2024-02-24T19:59:53.736Z,52.68
2024-02-24T20:02:24.213Z,52.69
2024-02-24T20:04:54.837Z,53.06
2024-02-24T20:07:25.286Z,52.99
2024-02-24T20:09:56.099Z,53.14
2024-02-24T20:12:26.841Z,52.99
2024-02-24T20:14:57.718Z,52.63
2024-02-24T20:17:28.101Z,52.61
2024-02-24T20:19:59.600Z,52.86
2024-02-24T20:22:32.492Z,52.33
2024-02-24T20:25:05.721Z,52.73
2024-02-24T20:27:36.381Z,52.63
2024-02-24T20:30:07.252Z,53.07
2024-02-24T20:32:37.652Z,52.76
2024-02-24T20:35:08.617Z,52.65
2024-02-24T20:37:38.712Z,52.63
2024-02-24T20:40:10.175Z,52.77
2024-02-24T20:42:40.583Z,53.32
2024-02-24T20:45:11.450Z,53.04
2024-02-24T20:47:41.959Z,53.15
2024-02-24T20:50:12.519Z,52.90
2024-02-24T20:52:42.682Z,52.66
2024-02-24T20:55:13.113Z,52.98
2024-02-24T20:57:43.329Z,53.11
2024-02-24T21:00:14.425Z,53.17
2024-02-24T21:02:45.062Z,52.99
2024-02-24T21:05:16.426Z,52.73
2024-02-24T21:07:46.953Z,53.26
2024-02-24T21:10:17.499Z,52.61
2024-02-24T21:12:47.732Z,52.65
2024-02-24T21:15:18.132Z,52.84
2024-02-24T21:17:48.378Z,52.92
2024-02-24T21:20:18.742Z,52.91
2024-02-24T21:22:48.912Z,53.73
2024-02-24T21:25:19.154Z,55.09
2024-02-24T21:27:50.611Z,55.58
2024-02-24T21:30:21.223Z,56.51
2024-02-24T21:32:54.917Z,58.18
2024-02-24T21:35:32.262Z,58.90
2024-02-24T21:38:03.954Z,59.53
2024-02-24T21:40:35.560Z,60.65
2024-02-24T21:43:06.834Z,61.18
2024-02-24T21:45:37.398Z,62.02
2024-02-24T21:48:07.934Z,61.18
2024-02-24T21:50:38.583Z,60.02
2024-02-24T21:53:08.835Z,58.98
2024-02-24T21:55:39.071Z,58.70
2024-02-24T21:58:09.770Z,58.17
2024-02-24T22:00:40.854Z,58.37
2024-02-24T22:03:11.854Z,57.93
2024-02-24T22:05:42.877Z,57.67
2024-02-24T22:08:13.773Z,57.62
2024-02-24T22:10:44.435Z,57.06
2024-02-24T22:13:15.664Z,57.44
2024-02-24T22:15:46.621Z,58.12
2024-02-24T22:18:17.695Z,59.53
2024-02-24T22:20:48.555Z,60.31
2024-02-24T22:23:19.514Z,61.69
2024-02-24T22:25:50.113Z,61.71
2024-02-24T22:28:20.966Z,63.35
2024-02-24T22:30:51.594Z,63.53
2024-02-24T22:33:22.382Z,62.87
2024-02-24T22:35:56.188Z,61.18
2024-02-24T22:38:26.909Z,60.80
2024-02-24T22:40:58.223Z,60.35
2024-02-24T22:43:29.506Z,59.45
2024-02-24T22:46:00.117Z,59.57
2024-02-24T22:48:32.359Z,58.51
2024-02-24T22:51:02.516Z,59.06
2024-02-24T22:53:32.826Z,58.17
2024-02-24T22:56:03.813Z,58.29
2024-02-24T22:58:34.175Z,58.20
2024-02-24T23:01:05.570Z,58.60
2024-02-24T23:03:36.341Z,58.96
2024-02-24T23:06:07.427Z,58.88
2024-02-24T23:08:37.981Z,59.69
2024-02-24T23:11:08.971Z,59.87
2024-02-24T23:13:39.769Z,59.85
2024-02-24T23:16:10.296Z,60.03
2024-02-24T23:18:41.410Z,60.44
2024-02-24T23:21:12.831Z,60.32
2024-02-24T23:23:43.558Z,60.91
2024-02-24T23:26:13.958Z,60.55
2024-02-24T23:28:45.214Z,61.30
2024-02-24T23:31:16.038Z,61.09
2024-02-24T23:33:46.932Z,61.69
2024-02-24T23:36:17.600Z,61.35
2024-02-24T23:38:47.997Z,61.66
2024-02-24T23:41:19.154Z,62.14
2024-02-24T23:43:49.564Z,61.92
2024-02-24T23:46:19.970Z,63.63
2024-02-24T23:48:50.815Z,64.03
2024-02-24T23:51:21.475Z,63.88
2024-02-24T23:53:53.056Z,64.65
2024-02-24T23:56:26.950Z,68.25
2024-02-24T23:58:57.663Z,67.51
